Time;durP1;ratioP1;P1;durP2;ratioP2;P2;SDS_P1;SDS_P2;PMS_P1;PMS_P2;Temp;Humidity;BMP_temperature;BMP_pressure;BME280_temperature;BME280_humidity;BME280_pressure;Samples;Min_cycle;Max_cycle;Signal;HPM_P1;HPM_P2
2022/12/09 00:01:51;;;;;;;2.40;2.27;;;;;;;;;;5050062;28;20204;-83
2022/12/09 00:04:19;;;;;;;3.00;2.80;;;;;;;;;;5072569;28;20233;-83
2022/12/09 00:06:48;;;;;;;1.00;1.00;;;;;;;;;;5054437;28;20201;-83
2022/12/09 00:09:16;;;;;;;2.23;1.97;;;;;;;;;;5054533;28;20192;-83
2022/12/09 00:11:46;;;;;;;1.50;1.50;;;;;;;;;;5054019;28;20198;-83
2022/12/09 00:14:15;;;;;;;0.90;0.90;;;;;;;;;;5055322;28;20198;-83
2022/12/09 00:16:43;;;;;;;2.70;2.60;;;;;;;;;;5071686;28;20205;-83
2022/12/09 00:19:12;;;;;;;5.33;4.83;;;;;;;;;;5044482;28;20291;-83
2022/12/09 00:21:41;;;;;;;2.10;2.00;;;;;;;;;;5052905;28;20291;-83
2022/12/09 00:24:11;;;;;;;2.60;2.50;;;;;;;;;;5043129;28;20301;-83
2022/12/09 00:26:40;;;;;;;6.53;4.13;;;;;;;;;;5054180;28;20221;-83
2022/12/09 00:29:10;;;;;;;12.57;5.40;;;;;;;;;;5058337;28;20190;-83
2022/12/09 00:31:39;;;;;;;5.87;5.30;;;;;;;;;;5046036;28;20197;-83
2022/12/09 00:34:09;;;;;;;4.67;4.17;;;;;;;;;;5057726;28;20197;-82
2022/12/09 00:36:37;;;;;;;1.20;1.20;;;;;;;;;;5068810;28;20206;-83
2022/12/09 00:39:06;;;;;;;2.47;1.50;;;;;;;;;;5069713;28;20201;-83
2022/12/09 00:41:34;;;;;;;1.30;1.30;;;;;;;;;;5050382;28;20248;-83
2022/12/09 00:44:02;;;;;;;2.90;2.70;;;;;;;;;;5053817;28;20259;-83
2022/12/09 00:46:32;;;;;;;1.20;1.20;;;;;;;;;;5058774;28;20212;-83
2022/12/09 00:49:01;;;;;;;13.53;4.53;;;;;;;;;;5074657;28;20193;-83
2022/12/09 00:51:29;;;;;;;3.40;3.20;;;;;;;;;;5048495;28;20201;-83
2022/12/09 00:53:58;;;;;;;2.00;1.90;;;;;;;;;;5073323;28;20189;-83
2022/12/09 00:56:28;;;;;;;2.33;2.20;;;;;;;;;;5058626;28;20204;-83
2022/12/09 00:58:56;;;;;;;6.73;5.60;;;;;;;;;;5062300;28;20202;-82
2022/12/09 01:01:24;;;;;;;3.43;3.13;;;;;;;;;;5057973;28;20227;-82
2022/12/09 01:03:54;;;;;;;3.80;2.57;;;;;;;;;;5057149;28;20281;-82
2022/12/09 01:06:25;;;;;;;3.17;3.00;;;;;;;;;;5074938;28;20209;-82
2022/12/09 01:08:53;;;;;;;4.40;4.00;;;;;;;;;;5074289;28;20230;-82
2022/12/09 01:11:23;;;;;;;2.67;1.73;;;;;;;;;;5056468;28;20224;-82
2022/12/09 01:13:52;;;;;;;2.77;2.63;;;;;;;;;;5062704;28;20206;-82
2022/12/09 01:16:22;;;;;;;10.10;4.50;;;;;;;;;;5056933;28;20287;-82
2022/12/09 01:18:51;;;;;;;3.30;2.93;;;;;;;;;;5057458;28;20298;-83
2022/12/09 01:21:20;;;;;;;8.20;3.73;;;;;;;;;;5055183;28;20199;-83
2022/12/09 01:23:49;;;;;;;4.57;4.10;;;;;;;;;;5056786;28;20240;-82
2022/12/09 01:26:18;;;;;;;2.37;2.27;;;;;;;;;;5043556;28;20268;-82
2022/12/09 01:28:49;;;;;;;3.10;2.87;;;;;;;;;;5040947;28;20200;-82
2022/12/09 01:31:19;;;;;;;1.87;1.77;;;;;;;;;;5075093;28;20245;-82
2022/12/09 01:33:48;;;;;;;5.70;4.90;;;;;;;;;;5075600;28;20199;-82
2022/12/09 01:36:17;;;;;;;4.73;4.33;;;;;;;;;;5043900;28;20292;-82
2022/12/09 01:38:47;;;;;;;4.03;3.63;;;;;;;;;;5047336;28;20228;-83
2022/12/09 01:41:17;;;;;;;3.10;1.83;;;;;;;;;;5049959;28;20223;-82
2022/12/09 01:43:46;;;;;;;4.23;3.87;;;;;;;;;;5057459;28;20215;-82
2022/12/09 01:46:14;;;;;;;2.40;2.20;;;;;;;;;;5075162;28;20227;-82
2022/12/09 01:48:44;;;;;;;6.50;5.27;;;;;;;;;;5075335;28;20221;-82
2022/12/09 01:51:13;;;;;;;9.67;7.63;;;;;;;;;;5044688;28;20214;-82
2022/12/09 01:53:43;;;;;;;8.73;6.53;;;;;;;;;;5061559;28;20230;-82
2022/12/09 01:56:15;;;;;;;5.60;4.23;;;;;;;;;;5074729;28;20202;-82
2022/12/09 01:58:45;;;;;;;3.93;3.53;;;;;;;;;;5070730;28;20227;-82
2022/12/09 02:01:13;;;;;;;14.13;8.50;;;;;;;;;;5048764;28;20215;-82
2022/12/09 02:03:41;;;;;;;10.87;6.97;;;;;;;;;;5056233;28;20223;-82
2022/12/09 02:06:10;;;;;;;7.97;7.20;;;;;;;;;;5067605;28;20235;-82
2022/12/09 02:08:38;;;;;;;16.80;6.37;;;;;;;;;;5056877;28;20203;-82
2022/12/09 02:11:10;;;;;;;4.13;3.73;;;;;;;;;;5056723;28;20206;-82
2022/12/09 02:13:43;;;;;;;3.57;3.37;;;;;;;;;;5037086;28;20189;-82
2022/12/09 02:16:15;;;;;;;4.07;3.73;;;;;;;;;;5040822;28;20261;-82
2022/12/09 02:18:47;;;;;;;8.13;6.23;;;;;;;;;;5069918;28;20285;-82
2022/12/09 02:21:18;;;;;;;1.20;1.20;;;;;;;;;;5056655;28;20261;-82
2022/12/09 02:23:49;;;;;;;8.63;1.77;;;;;;;;;;5053443;28;20302;-82
2022/12/09 02:26:22;;;;;;;1.00;1.00;;;;;;;;;;5036842;28;20254;-82
2022/12/09 02:29:11;;;;;;;1.00;1.00;;;;;;;;;;5041769;28;20205;-82
2022/12/09 02:31:50;;;;;;;1.63;1.53;;;;;;;;;;5038411;28;20209;-82
2022/12/09 02:34:20;;;;;;;1.10;1.10;;;;;;;;;;5056580;28;20194;-82
2022/12/09 02:36:54;;;;;;;1.00;1.00;;;;;;;;;;5052052;28;20206;-82
2022/12/09 02:39:25;;;;;;;0.97;0.97;;;;;;;;;;5037198;28;20202;-82
2022/12/09 02:41:55;;;;;;;1.37;1.27;;;;;;;;;;5054378;28;20248;-82
2022/12/09 02:44:24;;;;;;;0.90;0.90;;;;;;;;;;5049588;28;20228;-82
2022/12/09 02:46:53;;;;;;;7.40;1.87;;;;;;;;;;5061100;28;20229;-82
2022/12/09 02:49:23;;;;;;;1.57;1.57;;;;;;;;;;5055364;28;20211;-83
2022/12/09 02:51:51;;;;;;;1.00;1.00;;;;;;;;;;5060226;28;20230;-83
2022/12/09 02:54:21;;;;;;;1.33;1.23;;;;;;;;;;5073182;28;20193;-83
2022/12/09 02:56:52;;;;;;;1.00;1.00;;;;;;;;;;5061685;28;20206;-83
2022/12/09 02:59:20;;;;;;;0.90;0.90;;;;;;;;;;5055595;28;20226;-83
2022/12/09 03:01:51;;;;;;;0.80;0.80;;;;;;;;;;5056033;28;20191;-83
2022/12/09 03:04:21;;;;;;;1.37;1.37;;;;;;;;;;5042113;28;20242;-83
2022/12/09 03:06:53;;;;;;;1.33;1.33;;;;;;;;;;5055941;28;20222;-83
2022/12/09 03:09:24;;;;;;;0.90;0.90;;;;;;;;;;5055630;28;20305;-83
2022/12/09 03:11:53;;;;;;;1.90;1.90;;;;;;;;;;5056100;28;20244;-83
2022/12/09 03:14:23;;;;;;;2.33;2.23;;;;;;;;;;5049964;28;20201;-83
2022/12/09 03:16:54;;;;;;;0.80;0.80;;;;;;;;;;5035868;28;20206;-83
2022/12/09 03:19:26;;;;;;;1.30;1.23;;;;;;;;;;5055575;28;20195;-83
2022/12/09 03:21:57;;;;;;;2.40;2.30;;;;;;;;;;5059872;28;20204;-83
2022/12/09 03:24:28;;;;;;;1.33;1.33;;;;;;;;;;5024196;28;20231;-83
2022/12/09 03:26:58;;;;;;;1.07;1.07;;;;;;;;;;5034028;28;20222;-83
2022/12/09 03:29:27;;;;;;;6.03;3.20;;;;;;;;;;5047583;28;20204;-83
2022/12/09 03:31:57;;;;;;;5.77;5.17;;;;;;;;;;5028834;28;20203;-83
2022/12/09 03:34:28;;;;;;;8.67;6.80;;;;;;;;;;5019572;28;20212;-83
2022/12/09 03:36:59;;;;;;;8.27;5.27;;;;;;;;;;5030467;28;20301;-83
2022/12/09 03:39:30;;;;;;;7.77;5.53;;;;;;;;;;5035634;28;20203;-83
2022/12/09 03:42:02;;;;;;;8.67;6.57;;;;;;;;;;5052590;28;20205;-83
2022/12/09 03:44:32;;;;;;;5.87;5.37;;;;;;;;;;5035304;28;20275;-83
2022/12/09 03:47:01;;;;;;;4.23;3.83;;;;;;;;;;5033846;28;20214;-83
2022/12/09 03:49:29;;;;;;;12.70;7.77;;;;;;;;;;5024208;28;20289;-83
2022/12/09 03:52:02;;;;;;;6.97;3.47;;;;;;;;;;5038027;28;20290;-83
2022/12/09 03:54:33;;;;;;;8.63;6.63;;;;;;;;;;5025588;28;20293;-82
2022/12/09 03:57:02;;;;;;;13.13;8.70;;;;;;;;;;5022062;28;20269;-82
2022/12/09 03:59:33;;;;;;;6.90;4.80;;;;;;;;;;5052948;28;20212;-82
2022/12/09 04:02:03;;;;;;;12.67;8.97;;;;;;;;;;5027407;28;20290;-82
2022/12/09 04:04:32;;;;;;;5.50;4.77;;;;;;;;;;5054183;28;20268;-82
2022/12/09 04:07:01;;;;;;;4.33;3.93;;;;;;;;;;5056603;28;20258;-82
2022/12/09 04:09:30;;;;;;;1.43;1.43;;;;;;;;;;5044210;28;20194;-82
2022/12/09 04:11:58;;;;;;;1.07;1.07;;;;;;;;;;5035943;28;20205;-82
2022/12/09 04:14:27;;;;;;;1.67;1.67;;;;;;;;;;5037357;28;20204;-82
2022/12/09 04:16:55;;;;;;;4.60;4.07;;;;;;;;;;5050150;28;20203;-82
2022/12/09 04:19:24;;;;;;;20.30;11.63;;;;;;;;;;5031603;28;20199;-82
2022/12/09 04:21:52;;;;;;;27.73;16.17;;;;;;;;;;5049645;28;20294;-82
2022/12/09 04:24:22;;;;;;;16.57;12.17;;;;;;;;;;5055886;28;20238;-82
2022/12/09 04:26:50;;;;;;;24.13;14.63;;;;;;;;;;5073115;28;20236;-82
2022/12/09 04:29:19;;;;;;;8.80;7.47;;;;;;;;;;5049543;28;20248;-82
2022/12/09 04:31:47;;;;;;;6.27;5.50;;;;;;;;;;5072592;28;20248;-82
2022/12/09 04:34:16;;;;;;;14.53;11.47;;;;;;;;;;5057585;28;20206;-82
2022/12/09 04:36:44;;;;;;;28.73;16.67;;;;;;;;;;5073395;28;20202;-82
2022/12/09 04:39:13;;;;;;;49.07;18.10;;;;;;;;;;5058669;28;20189;-82
2022/12/09 04:41:43;;;;;;;262.97;40.53;;;;;;;;;;5041894;28;20198;-82
2022/12/09 04:44:11;;;;;;;305.40;36.07;;;;;;;;;;5049123;28;20197;-82
2022/12/09 04:46:40;;;;;;;155.23;21.67;;;;;;;;;;5040883;28;20233;-82
2022/12/09 04:49:08;;;;;;;355.37;50.67;;;;;;;;;;5056230;28;20211;-82
2022/12/09 04:51:37;;;;;;;118.07;17.67;;;;;;;;;;5051711;28;20206;-82
2022/12/09 04:54:08;;;;;;;36.23;8.43;;;;;;;;;;5050616;28;20207;-82
2022/12/09 04:56:36;;;;;;;249.87;31.67;;;;;;;;;;5056661;28;20263;-82
2022/12/09 04:59:06;;;;;;;335.27;40.43;;;;;;;;;;5056146;28;20222;-82
2022/12/09 05:01:35;;;;;;;32.77;7.93;;;;;;;;;;5045650;28;20190;-82
2022/12/09 05:04:05;;;;;;;35.10;7.10;;;;;;;;;;5057711;28;20222;-82
2022/12/09 05:06:33;;;;;;;316.63;37.80;;;;;;;;;;5057553;28;20214;-82
2022/12/09 05:09:02;;;;;;;244.80;22.80;;;;;;;;;;5074412;28;20226;-82
2022/12/09 05:11:31;;;;;;;239.97;27.27;;;;;;;;;;5046870;28;20198;-82
2022/12/09 05:14:00;;;;;;;213.27;24.70;;;;;;;;;;5074821;28;20243;-82
2022/12/09 05:16:30;;;;;;;345.87;39.23;;;;;;;;;;5057608;28;20228;-82
2022/12/09 05:19:00;;;;;;;217.20;25.83;;;;;;;;;;5054006;28;20249;-82
2022/12/09 05:21:28;;;;;;;94.67;16.83;;;;;;;;;;5066713;28;20201;-82
2022/12/09 05:23:57;;;;;;;135.97;17.07;;;;;;;;;;5056899;28;20233;-82
2022/12/09 05:26:26;;;;;;;3.60;2.90;;;;;;;;;;5075171;28;20306;-82
2022/12/09 05:28:54;;;;;;;107.30;12.67;;;;;;;;;;5051370;28;20205;-82
2022/12/09 05:31:23;;;;;;;48.87;6.90;;;;;;;;;;5049869;28;20198;-82
2022/12/09 05:33:53;;;;;;;323.10;45.43;;;;;;;;;;5056874;28;20220;-82
2022/12/09 05:36:24;;;;;;;100.67;13.60;;;;;;;;;;5054812;28;20265;-82
2022/12/09 05:38:52;;;;;;;39.33;7.37;;;;;;;;;;5037931;28;20187;-83
2022/12/09 05:41:21;;;;;;;61.03;9.70;;;;;;;;;;5069052;28;20202;-82
2022/12/09 05:43:50;;;;;;;213.17;24.67;;;;;;;;;;5067875;28;20202;-82
2022/12/09 05:46:19;;;;;;;319.87;37.90;;;;;;;;;;5039365;28;20210;-82
2022/12/09 05:48:48;;;;;;;167.17;19.87;;;;;;;;;;5066787;28;20199;-82
2022/12/09 05:51:23;;;;;;;19.33;5.37;;;;;;;;;;5040135;28;20207;-82
2022/12/09 05:53:53;;;;;;;348.37;35.13;;;;;;;;;;5057137;28;20230;-82
2022/12/09 05:56:23;;;;;;;296.23;35.40;;;;;;;;;;5043257;28;20197;-82
2022/12/09 05:58:52;;;;;;;265.73;27.97;;;;;;;;;;5064041;28;20198;-82
2022/12/09 06:01:21;;;;;;;154.53;21.47;;;;;;;;;;5038632;28;20213;-82
2022/12/09 06:03:51;;;;;;;360.30;41.93;;;;;;;;;;5073956;28;20217;-82
2022/12/09 06:06:22;;;;;;;231.00;22.40;;;;;;;;;;5073835;28;20301;-82
2022/12/09 06:08:55;;;;;;;147.53;18.60;;;;;;;;;;5056152;28;20299;-82
2022/12/09 06:11:24;;;;;;;8.23;2.23;;;;;;;;;;5037809;28;20289;-82
2022/12/09 06:13:54;;;;;;;119.57;17.77;;;;;;;;;;5037769;28;20202;-82
2022/12/09 06:16:22;;;;;;;155.70;19.40;;;;;;;;;;5037614;28;20194;-82
2022/12/09 06:18:51;;;;;;;106.80;14.70;;;;;;;;;;5052523;28;20202;-82
2022/12/09 06:21:21;;;;;;;194.07;20.97;;;;;;;;;;5047326;28;20195;-82
2022/12/09 06:23:50;;;;;;;62.43;9.77;;;;;;;;;;5039811;28;20248;-82
2022/12/09 06:26:20;;;;;;;188.33;23.63;;;;;;;;;;5063332;28;20264;-82
2022/12/09 06:28:49;;;;;;;85.50;12.57;;;;;;;;;;5041657;28;20214;-82
2022/12/09 06:31:18;;;;;;;276.77;31.97;;;;;;;;;;5063065;28;20211;-82
2022/12/09 06:33:47;;;;;;;268.70;32.70;;;;;;;;;;5067435;28;20198;-82
2022/12/09 06:36:27;;;;;;;191.87;22.97;;;;;;;;;;5037301;28;20257;-82
2022/12/09 06:38:56;;;;;;;4.97;3.10;;;;;;;;;;5056437;28;20193;-82
2022/12/09 06:41:28;;;;;;;127.93;17.13;;;;;;;;;;5055770;28;20208;-82
2022/12/09 06:43:57;;;;;;;341.03;39.13;;;;;;;;;;5048323;28;20213;-82
2022/12/09 06:46:26;;;;;;;244.20;30.33;;;;;;;;;;5055883;28;20212;-82
2022/12/09 06:48:56;;;;;;;123.70;18.67;;;;;;;;;;5047148;28;20268;-82
2022/12/09 06:51:27;;;;;;;4.93;2.37;;;;;;;;;;5068964;28;20202;-82
2022/12/09 06:53:56;;;;;;;79.00;11.77;;;;;;;;;;5056361;28;20334;-83
2022/12/09 06:56:24;;;;;;;239.90;31.03;;;;;;;;;;5051112;28;20191;-81
2022/12/09 06:58:53;;;;;;;80.23;15.13;;;;;;;;;;5054555;28;20232;-82
2022/12/09 07:01:22;;;;;;;211.90;28.00;;;;;;;;;;5041223;28;20206;-81
2022/12/09 07:03:52;;;;;;;84.13;14.37;;;;;;;;;;5055949;28;20232;-82
2022/12/09 07:06:26;;;;;;;353.50;41.63;;;;;;;;;;5054228;28;20218;-81
2022/12/09 07:08:59;;;;;;;103.93;12.70;;;;;;;;;;5049139;28;20197;-81
2022/12/09 07:11:28;;;;;;;126.30;16.20;;;;;;;;;;5036092;28;20237;-81
2022/12/09 07:13:57;;;;;;;297.93;31.70;;;;;;;;;;5038026;28;20198;-81
2022/12/09 07:16:26;;;;;;;180.07;24.57;;;;;;;;;;5064762;28;20220;-81
2022/12/09 07:18:55;;;;;;;238.23;26.23;;;;;;;;;;5067026;28;20291;-81
2022/12/09 07:21:24;;;;;;;57.97;10.23;;;;;;;;;;5045344;28;20199;-81
2022/12/09 07:23:52;;;;;;;201.10;22.10;;;;;;;;;;5055101;28;20261;-82
2022/12/09 07:26:22;;;;;;;75.30;13.47;;;;;;;;;;5073146;28;20210;-82
2022/12/09 07:28:51;;;;;;;233.00;29.60;;;;;;;;;;5055461;28;20225;-83
2022/12/09 07:31:20;;;;;;;14.83;5.00;;;;;;;;;;5061966;28;20229;-81
2022/12/09 07:33:50;;;;;;;215.47;29.27;;;;;;;;;;5049292;28;20206;-82
2022/12/09 07:36:19;;;;;;;101.30;15.80;;;;;;;;;;5035964;28;20277;-81
2022/12/09 07:38:49;;;;;;;212.33;33.40;;;;;;;;;;5061930;28;20211;-82
2022/12/09 07:41:18;;;;;;;157.70;16.43;;;;;;;;;;5066564;28;20209;-82
2022/12/09 07:43:49;;;;;;;73.53;14.20;;;;;;;;;;5043006;28;20288;-81
2022/12/09 07:46:18;;;;;;;24.03;6.93;;;;;;;;;;5041169;28;20487;-81
2022/12/09 07:48:47;;;;;;;65.90;11.83;;;;;;;;;;5043651;28;20208;-81
2022/12/09 07:51:17;;;;;;;94.87;19.17;;;;;;;;;;5072174;28;20252;-82
2022/12/09 07:53:46;;;;;;;4.83;2.80;;;;;;;;;;5054445;28;20205;-81
2022/12/09 07:56:16;;;;;;;49.93;14.50;;;;;;;;;;5055240;28;20205;-81
2022/12/09 07:58:46;;;;;;;62.93;18.20;;;;;;;;;;5073314;28;20197;-82
2022/12/09 08:01:18;;;;;;;3.83;3.27;;;;;;;;;;5038095;28;20198;-81
2022/12/09 08:03:47;;;;;;;40.53;14.63;;;;;;;;;;5035328;28;20226;-80
2022/12/09 08:06:17;;;;;;;6.37;5.37;;;;;;;;;;5035532;28;20201;-81
2022/12/09 08:08:47;;;;;;;8.60;5.67;;;;;;;;;;5048261;28;20254;-80
2022/12/09 08:11:16;;;;;;;5.90;3.47;;;;;;;;;;5042135;28;20243;-81
2022/12/09 08:13:46;;;;;;;49.07;15.67;;;;;;;;;;5041511;28;20195;-82
2022/12/09 08:16:15;;;;;;;43.97;14.13;;;;;;;;;;5047289;28;20227;-81
2022/12/09 08:18:48;;;;;;;9.73;7.17;;;;;;;;;;5049926;28;20259;-81
2022/12/09 08:21:18;;;;;;;51.23;18.47;;;;;;;;;;5054752;28;20232;-80
2022/12/09 08:23:47;;;;;;;14.07;6.60;;;;;;;;;;5054836;28;20242;-81
2022/12/09 08:26:16;;;;;;;27.00;14.20;;;;;;;;;;5054620;28;20202;-81
2022/12/09 08:28:45;;;;;;;43.93;15.83;;;;;;;;;;5072331;28;20207;-80
2022/12/09 08:31:15;;;;;;;27.10;9.83;;;;;;;;;;5054883;28;20266;-82
2022/12/09 08:33:45;;;;;;;52.40;13.13;;;;;;;;;;5054004;28;20334;-81
2022/12/09 08:36:15;;;;;;;3.90;3.60;;;;;;;;;;5051814;28;20255;-82
2022/12/09 08:38:44;;;;;;;25.20;12.40;;;;;;;;;;5054461;28;20194;-82
2022/12/09 08:41:14;;;;;;;10.93;5.33;;;;;;;;;;5060065;28;20199;-81
2022/12/09 08:43:45;;;;;;;49.57;15.17;;;;;;;;;;5069952;28;20211;-81
2022/12/09 08:46:14;;;;;;;13.25;6.43;;;;;;;;;;5061816;28;20445;-82
2022/12/09 08:48:43;;;;;;;22.93;8.77;;;;;;;;;;5035975;28;20215;-82
2022/12/09 08:51:13;;;;;;;5.83;4.60;;;;;;;;;;5051880;28;20202;-82
2022/12/09 08:53:41;;;;;;;20.97;8.77;;;;;;;;;;5052746;28;20200;-82
2022/12/09 08:56:11;;;;;;;4.97;4.17;;;;;;;;;;5053900;28;20223;-82
2022/12/09 08:58:40;;;;;;;6.47;3.53;;;;;;;;;;5050858;28;20191;-82
2022/12/09 09:01:14;;;;;;;2.23;2.07;;;;;;;;;;5052517;28;20199;-81
2022/12/09 09:03:44;;;;;;;18.03;9.93;;;;;;;;;;5044532;28;20293;-83
2022/12/09 09:06:15;;;;;;;26.90;14.87;;;;;;;;;;5038259;28;20211;-82
2022/12/09 09:08:44;;;;;;;2.23;2.13;;;;;;;;;;5056708;28;20272;-80
2022/12/09 09:11:15;;;;;;;1.83;1.83;;;;;;;;;;5045234;28;20273;-78
2022/12/09 09:13:45;;;;;;;56.53;25.10;;;;;;;;;;5041731;28;20240;-84
2022/12/09 09:16:15;;;;;;;25.03;13.03;;;;;;;;;;5043127;28;20207;-84
2022/12/09 09:18:44;;;;;;;28.57;13.87;;;;;;;;;;5061625;28;20299;-83
2022/12/09 09:21:17;;;;;;;14.57;7.10;;;;;;;;;;5046572;28;20202;-83
2022/12/09 09:23:46;;;;;;;12.83;7.33;;;;;;;;;;5042825;28;20260;-85
2022/12/09 09:26:16;;;;;;;40.37;16.27;;;;;;;;;;5059722;28;20200;-82
2022/12/09 09:28:46;;;;;;;44.93;20.53;;;;;;;;;;5059216;28;20272;-84
2022/12/09 09:31:15;;;;;;;4.27;3.60;;;;;;;;;;5056909;28;20204;-84
2022/12/09 09:33:45;;;;;;;7.23;4.77;;;;;;;;;;5042197;28;20222;-83
2022/12/09 09:36:19;;;;;;;56.87;28.30;;;;;;;;;;5060049;28;20214;-84
2022/12/09 09:38:48;;;;;;;61.97;29.47;;;;;;;;;;5044998;28;21758;-81
2022/12/09 09:41:20;;;;;;;11.97;8.23;;;;;;;;;;5056555;28;20203;-84
2022/12/09 09:43:50;;;;;;;14.07;11.27;;;;;;;;;;5039974;28;20286;-84
2022/12/09 09:46:21;;;;;;;3.87;3.27;;;;;;;;;;5045119;28;20458;-82
2022/12/09 09:48:50;;;;;;;4.70;3.63;;;;;;;;;;5040434;28;20225;-84
2022/12/09 09:51:21;;;;;;;36.57;16.60;;;;;;;;;;5047521;28;20208;-84
2022/12/09 09:53:53;;;;;;;12.93;9.00;;;;;;;;;;5043689;28;20237;-83
2022/12/09 09:56:27;;;;;;;6.97;5.10;;;;;;;;;;5047981;28;20212;-83
2022/12/09 09:59:13;;;;;;;6.23;2.40;;;;;;;;;;5061602;28;20304;-85
2022/12/09 10:01:42;;;;;;;33.03;15.20;;;;;;;;;;5057560;28;20214;-85
2022/12/09 10:04:15;;;;;;;31.47;18.97;;;;;;;;;;5043590;28;20246;-84
2022/12/09 10:06:48;;;;;;;33.73;16.53;;;;;;;;;;5042507;28;20289;-85
2022/12/09 10:09:20;;;;;;;6.97;4.47;;;;;;;;;;5044551;28;20223;-84
2022/12/09 10:11:57;;;;;;;33.80;18.30;;;;;;;;;;5041668;28;20265;-84
2022/12/09 10:14:37;;;;;;;38.73;18.97;;;;;;;;;;5041792;28;20221;-84
2022/12/09 10:17:11;;;;;;;42.40;21.00;;;;;;;;;;5042140;28;20491;-84
2022/12/09 10:19:42;;;;;;;45.17;23.47;;;;;;;;;;5041348;28;20280;-85
2022/12/09 10:22:14;;;;;;;35.87;21.27;;;;;;;;;;5036677;28;20244;-84
2022/12/09 10:24:46;;;;;;;50.47;23.50;;;;;;;;;;5044451;28;20207;-84
2022/12/09 10:27:20;;;;;;;11.13;7.40;;;;;;;;;;5045390;28;20205;-86
2022/12/09 10:29:54;;;;;;;35.30;18.37;;;;;;;;;;5044500;28;20203;-85
2022/12/09 10:32:25;;;;;;;19.57;12.33;;;;;;;;;;5037509;28;20275;-85
2022/12/09 10:34:55;;;;;;;34.67;18.60;;;;;;;;;;5039973;28;20265;-85
2022/12/09 10:37:32;;;;;;;33.07;17.50;;;;;;;;;;5044245;28;20206;-87
2022/12/09 10:40:14;;;;;;;47.03;24.13;;;;;;;;;;5042599;28;20212;-87
2022/12/09 10:45:32;;;;;;;3.53;2.70;;;;;;;;;;5066941;28;20242;-86
2022/12/09 10:48:22;;;;;;;22.43;14.53;;;;;;;;;;5050867;28;20273;-85
2022/12/09 10:50:59;;;;;;;5.13;4.17;;;;;;;;;;5061582;28;20291;-84
2022/12/09 10:53:34;;;;;;;3.63;2.33;;;;;;;;;;5045416;28;20253;-84
2022/12/09 10:56:03;;;;;;;4.80;4.20;;;;;;;;;;5044773;28;20236;-84
2022/12/09 10:58:32;;;;;;;17.57;10.20;;;;;;;;;;5058969;28;20201;-84
2022/12/09 11:01:02;;;;;;;4.57;3.43;;;;;;;;;;5042117;28;20299;-85
2022/12/09 11:03:33;;;;;;;2.20;2.10;;;;;;;;;;5043385;28;20228;-84
2022/12/09 11:06:12;;;;;;;6.40;4.50;;;;;;;;;;5046006;28;20219;-85
2022/12/09 11:08:51;;;;;;;6.80;4.43;;;;;;;;;;5047970;28;20224;-87
2022/12/09 11:11:41;;;;;;;39.20;19.10;;;;;;;;;;5040958;28;20197;-84
2022/12/09 11:14:22;;;;;;;30.77;20.43;;;;;;;;;;5047816;28;20223;-83
2022/12/09 11:16:52;;;;;;;23.37;13.27;;;;;;;;;;5047052;28;20208;-84
2022/12/09 11:19:32;;;;;;;21.57;13.87;;;;;;;;;;5048715;28;20196;-85
2022/12/09 11:22:19;;;;;;;26.10;17.53;;;;;;;;;;5040779;28;20212;-85
2022/12/09 11:24:52;;;;;;;25.80;14.97;;;;;;;;;;5026246;28;20234;-85
2022/12/09 11:27:26;;;;;;;38.83;25.13;;;;;;;;;;5026587;28;20201;-84
2022/12/09 11:30:18;;;;;;;23.40;13.53;;;;;;;;;;5023676;28;20217;-85
2022/12/09 11:32:58;;;;;;;34.90;22.23;;;;;;;;;;5023468;28;20282;-85
2022/12/09 11:35:29;;;;;;;29.63;16.37;;;;;;;;;;5023167;28;20197;-83
2022/12/09 11:38:01;;;;;;;38.47;24.30;;;;;;;;;;5023746;28;20236;-84
2022/12/09 11:40:32;;;;;;;35.13;20.27;;;;;;;;;;5038752;28;20199;-86
2022/12/09 11:43:00;;;;;;;19.13;9.53;;;;;;;;;;5022924;28;20207;-87
2022/12/09 11:45:31;;;;;;;26.00;15.07;;;;;;;;;;5025133;28;20218;-86
2022/12/09 11:48:05;;;;;;;37.87;23.53;;;;;;;;;;5039131;28;20234;-87
2022/12/09 11:50:54;;;;;;;23.80;13.70;;;;;;;;;;5027201;28;20214;-85
2022/12/09 11:53:26;;;;;;;24.70;16.40;;;;;;;;;;5032604;28;20212;-85
2022/12/09 11:56:08;;;;;;;16.30;9.43;;;;;;;;;;5020852;28;20217;-85
2022/12/09 11:58:39;;;;;;;41.43;24.43;;;;;;;;;;5022509;28;20213;-85
2022/12/09 12:01:12;;;;;;;37.17;21.17;;;;;;;;;;5020265;28;20209;-86
2022/12/09 12:03:43;;;;;;;38.03;20.80;;;;;;;;;;5038288;28;20216;-84
2022/12/09 12:06:16;;;;;;;36.87;23.23;;;;;;;;;;5034968;28;20219;-87
2022/12/09 12:08:52;;;;;;;34.60;20.63;;;;;;;;;;5036694;28;20200;-84
2022/12/09 12:11:25;;;;;;;27.43;15.83;;;;;;;;;;5022791;28;20234;-86
2022/12/09 12:13:57;;;;;;;41.10;21.47;;;;;;;;;;5035341;28;20261;-86
2022/12/09 12:16:30;;;;;;;33.13;15.43;;;;;;;;;;5020403;28;20219;-85
2022/12/09 12:19:10;;;;;;;33.00;17.43;;;;;;;;;;5015168;28;20203;-85
2022/12/09 12:21:47;;;;;;;38.13;19.47;;;;;;;;;;5032301;28;20205;-87
2022/12/09 12:24:27;;;;;;;30.90;17.07;;;;;;;;;;5059412;28;20227;-87
2022/12/09 12:27:03;;;;;;;41.63;25.77;;;;;;;;;;5040779;28;20296;-85
2022/12/09 12:29:37;;;;;;;2.70;2.50;;;;;;;;;;5037266;28;20216;-85
2022/12/09 12:32:24;;;;;;;23.40;14.80;;;;;;;;;;5060492;28;20195;-84
2022/12/09 12:34:59;;;;;;;40.27;22.67;;;;;;;;;;5046687;28;20223;-84
2022/12/09 12:37:45;;;;;;;8.83;7.00;;;;;;;;;;5038026;28;20199;-85
2022/12/09 12:40:20;;;;;;;35.97;22.20;;;;;;;;;;5042100;28;20214;-86
2022/12/09 12:48:43;;;;;;;28.87;16.43;;;;;;;;;;5045568;28;20211;-83
2022/12/09 12:51:18;;;;;;;27.23;15.43;;;;;;;;;;5063014;28;20201;-87
2022/12/09 12:53:52;;;;;;;31.10;17.50;;;;;;;;;;5042093;28;20212;-87
2022/12/09 12:56:30;;;;;;;39.80;25.13;;;;;;;;;;5060751;28;20286;-84
2022/12/09 12:59:05;;;;;;;28.83;16.20;;;;;;;;;;5042269;28;20201;-83
2022/12/09 13:01:34;;;;;;;33.50;20.80;;;;;;;;;;5046717;28;20279;-87
2022/12/09 13:04:08;;;;;;;37.27;22.37;;;;;;;;;;5039968;28;20281;-85
2022/12/09 13:06:42;;;;;;;37.30;19.90;;;;;;;;;;5044994;28;20226;-86
2022/12/09 13:09:14;;;;;;;30.07;18.53;;;;;;;;;;5049452;28;20223;-85
2022/12/09 13:11:49;;;;;;;31.27;20.77;;;;;;;;;;5060258;28;20214;-84
2022/12/09 13:14:21;;;;;;;37.87;24.17;;;;;;;;;;5040300;28;20210;-83
2022/12/09 13:16:50;;;;;;;38.80;23.57;;;;;;;;;;5059842;28;20278;-84
2022/12/09 13:19:21;;;;;;;28.87;17.03;;;;;;;;;;5042039;28;20205;-84
2022/12/09 13:21:49;;;;;;;31.73;19.53;;;;;;;;;;5042868;28;20214;-85
2022/12/09 13:24:26;;;;;;;41.73;19.47;;;;;;;;;;5039118;28;20225;-87
2022/12/09 13:27:00;;;;;;;38.40;24.50;;;;;;;;;;5057227;28;20202;-83
2022/12/09 13:29:35;;;;;;;39.47;20.63;;;;;;;;;;5059554;28;20226;-86
2022/12/09 13:32:14;;;;;;;31.53;18.47;;;;;;;;;;5038627;28;20231;-87
2022/12/09 13:34:45;;;;;;;33.67;22.73;;;;;;;;;;5038522;28;20205;-83
2022/12/09 13:37:39;;;;;;;29.37;19.00;;;;;;;;;;5041601;28;20210;-85
2022/12/09 13:40:29;;;;;;;38.20;21.03;;;;;;;;;;4970355;28;20210;-85
2022/12/09 13:43:05;;;;;;;36.53;22.67;;;;;;;;;;5060373;28;20210;-86
2022/12/09 13:45:51;;;;;;;31.67;19.50;;;;;;;;;;5046206;28;20217;-85
2022/12/09 13:48:43;;;;;;;24.97;17.03;;;;;;;;;;5041380;28;20316;-86
2022/12/09 13:51:13;;;;;;;38.40;20.80;;;;;;;;;;5040129;28;20209;-88
2022/12/09 13:53:47;;;;;;;42.83;25.33;;;;;;;;;;5057070;28;20213;-90
2022/12/09 13:56:22;;;;;;;35.07;21.67;;;;;;;;;;5042354;28;20215;-88
2022/12/09 13:59:05;;;;;;;36.70;22.87;;;;;;;;;;5059951;28;20212;-90
2022/12/09 14:01:36;;;;;;;25.87;16.07;;;;;;;;;;5057650;28;20215;-84
2022/12/09 14:04:11;;;;;;;36.73;21.87;;;;;;;;;;5041824;28;20232;-86
2022/12/09 14:06:48;;;;;;;32.57;19.53;;;;;;;;;;5045696;28;20219;-86
2022/12/09 14:09:23;;;;;;;31.33;20.03;;;;;;;;;;5044700;28;20299;-87
2022/12/09 14:11:52;;;;;;;33.27;20.37;;;;;;;;;;5039931;28;20296;-87
2022/12/09 14:14:53;;;;;;;36.63;21.70;;;;;;;;;;5056529;28;20215;-85
2022/12/09 14:17:41;;;;;;;31.13;18.93;;;;;;;;;;4962365;28;20213;-85
2022/12/09 14:20:20;;;;;;;29.67;15.37;;;;;;;;;;4978105;28;20206;-87
2022/12/09 14:23:07;;;;;;;30.07;19.53;;;;;;;;;;5012745;28;20225;-87
2022/12/09 14:25:47;;;;;;;35.03;20.87;;;;;;;;;;5039017;28;20277;-84
2022/12/09 14:28:26;;;;;;;36.37;21.90;;;;;;;;;;5037654;28;20212;-84
2022/12/09 14:30:58;;;;;;;39.73;21.77;;;;;;;;;;5045132;28;20221;-87
2022/12/09 14:33:39;;;;;;;40.63;21.23;;;;;;;;;;5059961;28;20200;-89
2022/12/09 14:36:22;;;;;;;42.37;21.53;;;;;;;;;;5043757;28;20208;-88
2022/12/09 14:38:54;;;;;;;37.03;21.27;;;;;;;;;;5036335;28;20214;-88
2022/12/09 14:41:47;;;;;;;15.33;9.00;;;;;;;;;;5044829;28;20213;-83
2022/12/09 14:44:20;;;;;;;30.47;20.07;;;;;;;;;;5045528;28;20204;-87
2022/12/09 14:46:50;;;;;;;35.27;20.80;;;;;;;;;;5041866;28;20223;-87
2022/12/09 14:49:25;;;;;;;39.23;20.17;;;;;;;;;;5061816;28;20207;-88
2022/12/09 14:52:00;;;;;;;16.20;10.63;;;;;;;;;;5044185;28;20244;-87
2022/12/09 14:54:30;;;;;;;25.73;15.27;;;;;;;;;;5061019;28;20211;-83
2022/12/09 14:57:00;;;;;;;27.00;14.63;;;;;;;;;;5058983;28;20234;-85
2022/12/09 14:59:30;;;;;;;30.90;14.97;;;;;;;;;;5041673;28;20201;-84
2022/12/09 15:02:00;;;;;;;36.33;23.07;;;;;;;;;;5043526;28;20200;-84